createdAt,value
2019-04-23T00:00:48.384Z,66.86
2019-04-23T00:01:49.266Z,66.78
2019-04-23T00:02:54.941Z,66.89
2019-04-23T00:04:01.410Z,66.86
2019-04-23T00:05:00.327Z,66.72
2019-04-23T00:06:15.543Z,66.78
2019-04-23T00:07:15.519Z,66.69
2019-04-23T00:08:19.682Z,66.66
2019-04-23T00:09:28.620Z,66.69
2019-04-23T00:10:25.320Z,66.71
2019-04-23T00:14:48.066Z,66.60
2019-04-23T00:15:53.239Z,66.70
2019-04-23T00:16:49.284Z,66.57
2019-04-23T00:18:12.385Z,66.52
2019-04-23T00:18:49.741Z,66.58
2019-04-23T00:20:04.561Z,66.50
2019-04-23T00:21:11.513Z,66.52
2019-04-23T00:22:13.316Z,66.50
2019-04-23T00:23:35.742Z,66.58
2019-04-23T00:24:28.429Z,66.53
2019-04-23T00:25:44.967Z,66.59
2019-04-23T00:26:30.580Z,66.75
2019-04-23T00:28:42.137Z,66.71
2019-04-23T00:29:47.918Z,66.85
2019-04-23T00:30:48.315Z,66.79
2019-04-23T00:31:44.424Z,66.84
2019-04-23T00:33:01.438Z,66.85
2019-04-23T00:33:57.497Z,66.94
2019-04-23T00:36:29.418Z,67.00
2019-04-23T00:37:18.682Z,67.05
2019-04-23T00:38:18.363Z,67.14
2019-04-23T00:39:23.442Z,67.06
2019-04-23T00:40:28.822Z,67.06
2019-04-23T00:41:33.338Z,67.09
2019-04-23T00:42:38.513Z,67.11
2019-04-23T00:43:54.539Z,67.13
2019-04-23T00:44:46.044Z,67.25
2019-04-23T00:45:48.490Z,67.17
2019-04-23T00:46:50.683Z,67.18
2019-04-23T00:51:01.974Z,67.35
2019-04-23T00:52:15.162Z,67.24
2019-04-23T00:55:22.801Z,67.20
2019-04-23T00:56:38.619Z,67.28
2019-04-23T00:57:35.590Z,67.23
2019-04-23T00:59:44.782Z,67.28
2019-04-23T01:00:48.998Z,67.39
2019-04-23T01:03:01.916Z,67.25
2019-04-23T01:04:02.814Z,67.36
2019-04-23T01:06:10.042Z,67.40
2019-04-23T01:07:16.497Z,67.39
2019-04-23T01:08:18.600Z,67.41
2019-04-23T01:09:22.685Z,67.43
2019-04-23T01:10:27.682Z,67.56
2019-04-23T01:11:23.903Z,67.50
2019-04-23T01:12:39.742Z,67.39
2019-04-23T01:14:38.530Z,67.60
2019-04-23T01:15:46.803Z,67.62
2019-04-23T01:16:46.221Z,67.63
2019-04-23T01:18:54.585Z,67.64
2019-04-23T01:20:01.921Z,67.62
2019-04-23T01:20:54.705Z,67.64
2019-04-23T01:21:51.497Z,67.54
2019-04-23T01:22:54.967Z,67.59
2019-04-23T01:24:04.396Z,67.56
2019-04-23T01:25:13.396Z,67.60
2019-04-23T01:26:26.445Z,67.66
2019-04-23T01:27:48.452Z,67.64
2019-04-23T01:28:49.603Z,67.67
2019-04-23T01:29:50.656Z,67.74
2019-04-23T01:30:59.120Z,67.62
2019-04-23T01:31:53.306Z,67.67
2019-04-23T01:32:53.603Z,67.68
2019-04-23T01:34:07.970Z,67.69
2019-04-23T01:37:18.067Z,67.70
2019-04-23T01:38:22.270Z,67.80
2019-04-23T01:39:23.127Z,67.88
2019-04-23T01:40:32.208Z,67.91
2019-04-23T01:41:33.343Z,67.87
2019-04-23T01:42:40.605Z,67.96
2019-04-23T01:43:41.082Z,67.89
2019-04-23T01:44:51.595Z,67.91
2019-04-23T01:45:43.459Z,67.94
2019-04-23T01:46:57.634Z,67.98
2019-04-23T01:48:13.244Z,67.96
2019-04-23T01:49:06.684Z,67.94
2019-04-23T01:50:14.320Z,67.88
2019-04-23T01:51:09.645Z,67.95
2019-04-23T01:52:21.239Z,67.87
2019-04-23T01:54:27.321Z,67.97
2019-04-23T01:57:46.613Z,68.03
2019-04-23T01:58:59.199Z,68.13
2019-04-23T01:59:49.447Z,68.12
2019-04-23T02:01:58.748Z,68.15
2019-04-23T02:03:03.635Z,68.08
2019-04-23T02:04:09.638Z,68.15
2019-04-23T02:05:15.744Z,68.15
2019-04-23T02:06:14.811Z,68.08
2019-04-23T02:07:24.422Z,68.18
2019-04-23T02:08:20.994Z,68.21
2019-04-23T02:09:26.040Z,68.26
2019-04-23T02:10:41.151Z,68.30
2019-04-23T02:11:31.583Z,68.38
2019-04-23T02:12:42.976Z,68.48
2019-04-23T02:13:42.027Z,68.45
2019-04-23T02:14:51.604Z,68.46
2019-04-23T02:16:55.922Z,68.43
2019-04-23T02:19:07.705Z,68.30
2019-04-23T02:21:10.766Z,68.34
2019-04-23T02:22:27.390Z,68.42
2019-04-23T02:23:26.292Z,68.47
2019-04-23T02:24:30.622Z,68.48
2019-04-23T02:25:44.277Z,68.48
2019-04-23T02:26:33.911Z,68.46
2019-04-23T02:27:43.313Z,68.49
2019-04-23T02:28:49.653Z,68.40
2019-04-23T02:30:05.956Z,68.51
2019-04-23T02:31:18.562Z,68.44
2019-04-23T02:32:01.321Z,68.41
2019-04-23T02:35:46.357Z,68.37
2019-04-23T02:36:11.179Z,68.32
2019-04-23T02:39:47.782Z,68.13
2019-04-23T02:40:49.583Z,68.13
2019-04-23T02:41:47.030Z,68.12
2019-04-23T02:43:00.863Z,68.13
2019-04-23T02:43:51.021Z,68.13
2019-04-23T02:44:56.342Z,68.25
2019-04-23T02:46:01.938Z,68.22
2019-04-23T02:50:33.621Z,68.10
2019-04-23T02:51:31.128Z,68.01
2019-04-23T02:52:21.291Z,67.99
2019-04-23T02:53:37.613Z,68.15
2019-04-23T02:54:50.897Z,67.86
2019-04-23T02:57:44.175Z,67.95
2019-04-23T02:58:52.172Z,67.86
2019-04-23T03:00:16.147Z,68.00
2019-04-23T03:02:14.480Z,67.99
2019-04-23T03:03:06.112Z,68.03
2019-04-23T03:05:22.199Z,67.97
2019-04-23T03:06:21.807Z,67.96
2019-04-23T03:09:36.433Z,67.84
2019-04-23T03:10:42.795Z,67.87
2019-04-23T03:11:54.132Z,67.83
2019-04-23T03:15:04.526Z,67.86
2019-04-23T03:16:06.266Z,67.92
2019-04-23T03:17:11.088Z,67.94
2019-04-23T03:18:21.096Z,67.96
2019-04-23T03:19:13.635Z,68.00
2019-04-23T03:20:21.486Z,68.12
2019-04-23T03:21:29.082Z,68.21
2019-04-23T03:22:14.581Z,68.20
2019-04-23T03:23:34.110Z,68.17
2019-04-23T03:25:31.314Z,68.15
2019-04-23T03:27:42.102Z,68.24
2019-04-23T03:28:55.716Z,68.17
2019-04-23T03:32:30.220Z,68.24
2019-04-23T03:35:20.336Z,68.20
2019-04-23T03:37:11.186Z,68.19
2019-04-23T03:38:41.698Z,68.21
2019-04-23T03:39:50.020Z,68.20
2019-04-23T03:40:39.160Z,68.17
2019-04-23T03:43:47.007Z,68.04
2019-04-23T03:45:10.135Z,68.00
2019-04-23T03:47:06.626Z,68.11
2019-04-23T03:48:16.819Z,68.07
2019-04-23T03:49:16.292Z,68.03
2019-04-23T03:50:23.874Z,67.97
2019-04-23T03:52:27.879Z,68.03
2019-04-23T03:53:49.618Z,67.78
2019-04-23T03:54:39.948Z,67.83
2019-04-23T03:56:56.256Z,67.81
2019-04-23T03:58:47.359Z,67.83
2019-04-23T04:01:07.414Z,67.89
2019-04-23T04:02:20.557Z,67.66
2019-04-23T04:05:22.349Z,67.72
2019-04-23T04:07:44.902Z,67.66
2019-04-23T04:08:26.205Z,67.61
2019-04-23T04:10:44.466Z,67.40
2019-04-23T04:11:27.179Z,67.47
2019-04-23T04:12:47.457Z,67.29
2019-04-23T04:15:20.865Z,67.16
2019-04-23T04:17:12.444Z,67.07
2019-04-23T04:18:21.254Z,67.13
2019-04-23T04:20:24.512Z,67.05
2019-04-23T04:21:29.911Z,66.98
2019-04-23T04:22:49.756Z,67.01
2019-04-23T04:24:34.659Z,66.83
2019-04-23T04:25:45.009Z,66.83
2019-04-23T04:26:50.935Z,66.68
2019-04-23T04:30:52.099Z,66.59
2019-04-23T04:32:11.887Z,66.75
2019-04-23T04:33:16.674Z,66.58
2019-04-23T04:34:43.834Z,66.47
2019-04-23T04:36:26.520Z,66.33
2019-04-23T04:37:44.155Z,66.19
2019-04-23T04:39:42.240Z,65.97
2019-04-23T04:40:47.209Z,65.69
2019-04-23T04:41:52.451Z,65.79
2019-04-23T04:45:04.838Z,65.61
2019-04-23T04:46:12.418Z,65.72
2019-04-23T04:48:11.881Z,65.11
2019-04-23T04:49:21.440Z,64.87
2019-04-23T04:52:48.658Z,65.06
2019-04-23T04:54:39.323Z,64.35
2019-04-23T04:55:45.203Z,64.20
2019-04-23T04:56:43.057Z,64.28
2019-04-23T04:57:52.667Z,64.34
2019-04-23T04:58:52.908Z,64.29
2019-04-23T05:01:08.363Z,63.88
2019-04-23T05:02:20.848Z,63.94
2019-04-23T05:03:19.255Z,63.89
2019-04-23T05:04:19.956Z,63.17
2019-04-23T05:06:24.779Z,63.66
2019-04-23T05:10:04.304Z,63.31
2019-04-23T05:12:52.896Z,62.94
2019-04-23T05:13:52.448Z,62.53
2019-04-23T05:16:07.936Z,62.35
2019-04-23T05:17:02.931Z,62.74
2019-04-23T05:18:17.764Z,62.97
2019-04-23T05:19:25.057Z,62.80
2019-04-23T05:20:23.978Z,61.88
2019-04-23T05:21:20.782Z,62.08
2019-04-23T05:22:32.569Z,61.86
2019-04-23T05:23:25.573Z,61.56
2019-04-23T05:25:31.671Z,60.95
2019-04-23T05:26:33.125Z,61.13
2019-04-23T05:27:54.461Z,60.59
2019-04-23T05:29:06.394Z,60.96
2019-04-23T05:30:02.861Z,60.76
2019-04-23T05:31:01.603Z,61.17
2019-04-23T05:31:58.045Z,60.36
2019-04-23T05:33:15.353Z,60.36
2019-04-23T05:34:10.686Z,60.20
2019-04-23T05:35:27.840Z,59.94
2019-04-23T05:37:50.411Z,59.85
2019-04-23T05:38:43.737Z,59.59
2019-04-23T05:39:35.781Z,58.78
2019-04-23T05:40:53.718Z,57.70
2019-04-23T05:41:41.662Z,56.84
2019-04-23T05:42:49.736Z,57.01
2019-04-23T05:44:55.752Z,55.87
2019-04-23T05:45:57.381Z,55.50
2019-04-23T05:47:11.764Z,55.33
2019-04-23T05:48:13.382Z,54.69
2019-04-23T05:49:11.017Z,54.55
2019-04-23T05:50:30.217Z,54.67
2019-04-23T05:51:36.392Z,54.32
2019-04-23T05:52:24.103Z,54.16
2019-04-23T05:53:37.806Z,54.15
2019-04-23T05:54:40.840Z,53.41
2019-04-23T05:55:46.006Z,52.72
2019-04-23T05:56:46.796Z,52.20
2019-04-23T05:57:45.281Z,52.84
2019-04-23T05:58:52.948Z,52.81
2019-04-23T06:00:02.086Z,53.11
2019-04-23T06:01:19.988Z,53.13
2019-04-23T06:02:18.246Z,53.34
2019-04-23T06:04:21.636Z,52.77
2019-04-23T06:06:31.641Z,52.76
2019-04-23T06:07:35.514Z,52.75
2019-04-23T06:08:39.066Z,53.07
2019-04-23T06:09:52.123Z,53.11
2019-04-23T06:10:42.105Z,53.21
2019-04-23T06:11:52.670Z,53.39
2019-04-23T06:12:50.900Z,52.19
2019-04-23T06:14:00.221Z,52.42
2019-04-23T06:14:57.538Z,52.49
2019-04-23T06:16:08.512Z,52.11
2019-04-23T06:17:09.351Z,52.30
2019-04-23T06:18:17.154Z,52.64
2019-04-23T06:20:27.577Z,52.06
2019-04-23T06:21:25.215Z,51.90
2019-04-23T06:23:37.642Z,52.68
2019-04-23T06:24:49.209Z,52.69
2019-04-23T06:26:12.782Z,52.61
2019-04-23T06:27:06.821Z,52.33
2019-04-23T06:27:54.943Z,53.21
2019-04-23T06:29:00.854Z,52.72
2019-04-23T06:29:57.477Z,52.03
2019-04-23T06:32:06.387Z,52.29
2019-04-23T06:33:19.926Z,52.70
2019-04-23T06:35:27.075Z,51.46
2019-04-23T06:36:26.034Z,51.98
2019-04-23T06:37:36.799Z,51.73
2019-04-23T06:38:53.383Z,51.80
2019-04-23T06:40:45.329Z,51.88
2019-04-23T06:41:50.168Z,52.54
2019-04-23T06:42:54.803Z,51.33
2019-04-23T06:44:00.540Z,50.80
2019-04-23T06:46:04.874Z,51.25
2019-04-23T06:47:06.870Z,51.78
2019-04-23T06:48:15.523Z,50.78
2019-04-23T06:50:19.547Z,51.03
2019-04-23T06:51:27.226Z,51.65
2019-04-23T06:52:43.718Z,51.56
2019-04-23T06:53:33.775Z,51.01
2019-04-23T06:54:42.883Z,50.47
2019-04-23T06:55:42.553Z,50.74
2019-04-23T06:56:54.369Z,50.62
2019-04-23T06:57:48.184Z,51.70
2019-04-23T06:59:14.052Z,50.46
2019-04-23T07:00:04.271Z,50.00
2019-04-23T07:02:12.033Z,50.58
2019-04-23T07:03:14.992Z,50.64
2019-04-23T07:04:22.031Z,50.46
2019-04-23T07:05:25.250Z,50.73
2019-04-23T07:07:42.524Z,50.13
2019-04-23T07:08:53.931Z,50.85
2019-04-23T07:09:35.270Z,50.19
2019-04-23T07:10:55.514Z,49.91
2019-04-23T07:11:46.288Z,49.73
2019-04-23T07:15:14.120Z,50.59
2019-04-23T07:16:03.149Z,49.80
2019-04-23T07:17:21.349Z,48.95
2019-04-23T07:18:10.050Z,48.85
2019-04-23T07:19:25.024Z,49.35
2019-04-23T07:20:25.236Z,49.37
2019-04-23T07:21:42.012Z,49.64
2019-04-23T07:22:28.497Z,49.35
2019-04-23T07:23:46.317Z,49.12
2019-04-23T07:24:45.727Z,50.67
2019-04-23T07:25:53.977Z,50.71
2019-04-23T07:26:49.354Z,50.63
2019-04-23T07:27:59.019Z,48.91
2019-04-23T07:30:08.317Z,49.33
2019-04-23T07:31:19.227Z,48.53
2019-04-23T07:32:11.631Z,48.59
2019-04-23T07:33:20.867Z,48.51
2019-04-23T07:34:19.223Z,48.48
2019-04-23T07:35:21.287Z,49.31
2019-04-23T07:36:38.844Z,48.94
2019-04-23T07:37:40.685Z,49.06
2019-04-23T07:38:47.490Z,48.54
2019-04-23T07:39:55.921Z,48.30
2019-04-23T07:40:46.745Z,48.76
2019-04-23T07:41:54.806Z,48.15
2019-04-23T07:43:00.106Z,48.36
2019-04-23T07:44:06.351Z,48.70
2019-04-23T07:45:01.920Z,48.83
2019-04-23T07:47:23.387Z,48.38
2019-04-23T07:48:15.249Z,47.63
2019-04-23T07:49:23.701Z,48.05
2019-04-23T07:51:31.781Z,47.97
2019-04-23T07:53:41.245Z,47.30
2019-04-23T07:54:51.286Z,47.23
2019-04-23T07:56:02.516Z,48.01
2019-04-23T07:56:54.142Z,47.44
2019-04-23T07:58:01.955Z,48.34
2019-04-23T07:59:07.319Z,48.54
2019-04-23T08:01:06.318Z,48.62
2019-04-23T08:02:22.027Z,48.36
2019-04-23T08:03:22.302Z,46.95
2019-04-23T08:04:29.583Z,46.81
2019-04-23T08:05:26.534Z,46.27
2019-04-23T08:06:30.031Z,47.05
2019-04-23T08:07:37.528Z,48.56
2019-04-23T08:08:36.399Z,47.52
2019-04-23T08:09:47.813Z,47.56
2019-04-23T08:11:11.145Z,46.61
2019-04-23T08:12:16.995Z,46.35
2019-04-23T08:13:00.946Z,45.55
2019-04-23T08:15:13.065Z,46.06
2019-04-23T08:16:21.817Z,45.63
2019-04-23T08:17:20.391Z,45.79
2019-04-23T08:18:18.030Z,45.83
2019-04-23T08:19:26.709Z,45.83
2019-04-23T08:20:32.223Z,46.96
2019-04-23T08:21:45.970Z,45.67
2019-04-23T08:22:40.752Z,46.01
2019-04-23T08:23:42.785Z,45.56
2019-04-23T08:24:53.648Z,44.88
2019-04-23T08:26:00.565Z,45.28
2019-04-23T08:26:53.516Z,45.55
2019-04-23T08:27:55.525Z,45.16
2019-04-23T08:29:04.097Z,45.36
2019-04-23T08:30:00.658Z,45.59
2019-04-23T08:31:16.537Z,45.14
2019-04-23T08:32:14.995Z,44.69
2019-04-23T08:33:17.316Z,44.70
2019-04-23T08:34:32.510Z,45.53
2019-04-23T08:35:27.002Z,45.86
2019-04-23T08:36:37.527Z,46.26
2019-04-23T08:37:49.729Z,47.11
2019-04-23T08:39:43.419Z,44.90
2019-04-23T08:40:57.502Z,45.47
2019-04-23T08:42:09.593Z,45.10
2019-04-23T08:43:25.103Z,44.83
2019-04-23T08:44:10.131Z,45.82
2019-04-23T08:46:14.045Z,46.31
2019-04-23T08:47:20.261Z,45.85
2019-04-23T08:48:34.609Z,46.21
2019-04-23T08:49:29.048Z,45.71
2019-04-23T08:50:35.871Z,44.63
2019-04-23T08:51:53.325Z,44.92
2019-04-23T08:52:40.191Z,45.72
2019-04-23T08:53:42.419Z,44.34
2019-04-23T08:54:58.062Z,44.34
2019-04-23T08:56:07.295Z,44.75
2019-04-23T08:58:04.631Z,45.21
2019-04-23T08:59:07.407Z,45.85
2019-04-23T09:00:03.584Z,44.60
2019-04-23T09:01:10.646Z,44.90
2019-04-23T09:02:30.590Z,45.61
2019-04-23T09:04:27.077Z,44.71
2019-04-23T09:05:38.236Z,44.12
2019-04-23T09:06:29.133Z,44.58
2019-04-23T09:07:42.589Z,44.19
2019-04-23T09:09:56.796Z,44.87
2019-04-23T09:10:56.248Z,44.53
2019-04-23T09:11:53.765Z,44.87
2019-04-23T09:13:31.492Z,44.52
2019-04-23T09:14:03.951Z,44.66
2019-04-23T09:15:15.378Z,44.52
2019-04-23T09:16:17.999Z,45.20
2019-04-23T09:17:27.789Z,44.84
2019-04-23T09:18:20.975Z,44.77
2019-04-23T09:19:32.134Z,45.08
2019-04-23T09:20:27.688Z,44.14
2019-04-23T09:21:33.227Z,44.62
2019-04-23T09:22:38.619Z,44.99
2019-04-23T09:23:46.731Z,44.22
2019-04-23T09:24:55.747Z,43.95
2019-04-23T09:27:03.950Z,44.25
2019-04-23T09:28:04.537Z,44.20
2019-04-23T09:29:10.426Z,44.30
2019-04-23T09:30:16.762Z,44.27
2019-04-23T09:31:18.864Z,44.77
2019-04-23T09:32:47.267Z,44.67
2019-04-23T09:33:37.750Z,45.03
2019-04-23T09:34:29.896Z,45.56
2019-04-23T09:35:31.145Z,45.85
2019-04-23T09:36:40.626Z,45.63
2019-04-23T09:38:55.917Z,44.34
2019-04-23T09:39:59.446Z,45.59
2019-04-23T09:42:03.881Z,44.30
2019-04-23T09:45:15.153Z,46.22
2019-04-23T09:46:17.892Z,44.46
2019-04-23T09:47:19.398Z,44.69
2019-04-23T09:48:26.701Z,44.96
2019-04-23T09:49:34.870Z,45.98
2019-04-23T09:50:37.681Z,45.72
2019-04-23T09:52:48.404Z,44.13
2019-04-23T09:54:00.666Z,44.42
2019-04-23T09:55:00.245Z,45.04
2019-04-23T09:55:46.797Z,44.92
2019-04-23T09:57:02.377Z,44.92
2019-04-23T09:59:15.907Z,45.49
2019-04-23T10:00:22.892Z,45.73
2019-04-23T10:01:19.614Z,44.74
2019-04-23T10:02:17.432Z,45.01
2019-04-23T10:03:16.112Z,44.84
2019-04-23T10:04:18.847Z,45.15
2019-04-23T10:05:22.172Z,44.79
2019-04-23T10:06:20.924Z,44.77
2019-04-23T10:07:31.431Z,44.79
2019-04-23T10:08:27.953Z,45.46
2019-04-23T10:09:27.377Z,46.19
2019-04-23T10:10:30.335Z,44.88
2019-04-23T10:11:34.638Z,45.46
2019-04-23T10:12:39.991Z,46.21
2019-04-23T10:13:43.482Z,45.75
2019-04-23T10:14:59.329Z,45.68
2019-04-23T10:15:53.587Z,45.73
2019-04-23T10:16:57.923Z,45.98
2019-04-23T10:18:02.406Z,45.35
2019-04-23T10:19:06.084Z,44.81
2019-04-23T10:20:10.821Z,46.08
2019-04-23T10:21:15.312Z,44.96
2019-04-23T10:22:19.508Z,44.93
2019-04-23T10:23:23.223Z,45.35
2019-04-23T10:24:27.631Z,45.43
2019-04-23T10:25:31.975Z,45.09
2019-04-23T10:26:35.588Z,45.38
2019-04-23T10:27:41.310Z,45.54
2019-04-23T10:28:44.317Z,45.79
2019-04-23T10:29:49.926Z,45.17
2019-04-23T10:30:54.450Z,45.11
2019-04-23T10:31:57.796Z,44.90
2019-04-23T10:33:03.263Z,45.60
2019-04-23T10:34:06.492Z,45.79
2019-04-23T10:35:22.420Z,45.16
2019-04-23T10:36:19.057Z,45.96
2019-04-23T10:37:32.028Z,45.99
2019-04-23T10:38:24.663Z,45.78
2019-04-23T10:39:33.597Z,46.22
2019-04-23T10:40:37.505Z,46.04
2019-04-23T10:41:38.482Z,45.69
2019-04-23T10:42:44.639Z,45.81
2019-04-23T10:43:48.394Z,46.08
2019-04-23T10:44:52.363Z,46.35
2019-04-23T10:46:15.026Z,46.70
2019-04-23T10:47:23.793Z,45.80
2019-04-23T10:48:34.343Z,45.62
2019-04-23T10:49:53.558Z,45.70
2019-04-23T10:50:50.829Z,45.03
2019-04-23T10:51:42.441Z,45.68
2019-04-23T10:52:52.342Z,45.79
2019-04-23T10:53:50.613Z,45.71
2019-04-23T10:55:11.800Z,46.38
2019-04-23T10:56:18.515Z,45.69
2019-04-23T10:57:09.238Z,46.07
2019-04-23T10:58:16.369Z,46.22
2019-04-23T10:59:19.784Z,47.09
2019-04-23T11:00:17.381Z,46.02
2019-04-23T11:01:28.004Z,45.16
2019-04-23T11:03:49.200Z,46.67
2019-04-23T11:04:48.866Z,46.28
2019-04-23T11:05:56.318Z,46.57
2019-04-23T11:06:47.347Z,46.71
2019-04-23T11:07:48.806Z,46.00
2019-04-23T11:08:51.759Z,45.75
2019-04-23T11:11:07.919Z,44.89
2019-04-23T11:12:12.439Z,45.00
2019-04-23T11:13:17.499Z,44.65
2019-04-23T11:14:18.253Z,45.26
2019-04-23T11:17:38.355Z,45.09
2019-04-23T11:18:48.970Z,45.13
2019-04-23T11:19:50.846Z,45.12
2019-04-23T11:20:46.221Z,44.90
2019-04-23T11:21:51.200Z,45.75
2019-04-23T11:24:01.665Z,45.02
2019-04-23T11:26:06.747Z,44.93
2019-04-23T11:27:19.118Z,44.22
2019-04-23T11:29:17.708Z,44.68
2019-04-23T11:30:33.120Z,44.67
2019-04-23T11:31:48.727Z,44.39
2019-04-23T11:33:39.148Z,44.37
2019-04-23T11:35:03.250Z,43.99
2019-04-23T11:36:09.418Z,44.54
2019-04-23T11:36:53.722Z,43.45
2019-04-23T11:39:00.236Z,44.49
2019-04-23T11:41:16.019Z,44.52
2019-04-23T11:42:14.512Z,44.23
2019-04-23T11:44:26.407Z,43.40
2019-04-23T11:46:45.693Z,43.94
2019-04-23T11:48:07.427Z,43.14
2019-04-23T11:49:53.368Z,42.59
2019-04-23T11:51:21.788Z,43.48
2019-04-23T11:52:08.491Z,42.42
2019-04-23T11:55:20.440Z,42.00
2019-04-23T11:56:16.090Z,42.11
2019-04-23T11:59:31.721Z,43.07
2019-04-23T12:00:33.607Z,43.01
2019-04-23T12:02:38.656Z,42.02
2019-04-23T12:03:46.813Z,42.43
2019-04-23T12:04:49.900Z,42.10
2019-04-23T12:05:49.947Z,42.84
2019-04-23T12:06:52.829Z,41.95
2019-04-23T12:07:57.441Z,40.90
2019-04-23T12:08:58.989Z,41.58
2019-04-23T12:11:39.442Z,40.92
2019-04-23T12:12:16.891Z,41.79
2019-04-23T12:13:28.654Z,41.58
2019-04-23T12:14:30.530Z,41.45
2019-04-23T12:15:37.497Z,41.39
2019-04-23T12:16:41.128Z,41.38
2019-04-23T12:17:43.246Z,41.03
2019-04-23T12:18:58.139Z,41.66
2019-04-23T12:20:49.030Z,41.77
2019-04-23T12:23:07.480Z,41.54
2019-04-23T12:24:11.809Z,41.48
2019-04-23T12:27:25.533Z,41.71
2019-04-23T12:28:20.773Z,41.79
2019-04-23T12:29:27.435Z,40.42
2019-04-23T12:31:40.106Z,39.45
2019-04-23T12:33:45.392Z,39.86
2019-04-23T12:34:55.701Z,40.19
2019-04-23T12:35:43.384Z,40.37
2019-04-23T12:36:57.165Z,40.04
2019-04-23T12:39:04.390Z,39.98
2019-04-23T12:40:18.247Z,40.37
2019-04-23T12:41:12.989Z,40.89
2019-04-23T12:42:28.285Z,39.80
2019-04-23T12:43:18.992Z,40.28
2019-04-23T12:44:31.003Z,40.52
2019-04-23T12:45:31.740Z,40.16
2019-04-23T12:46:41.701Z,39.84
2019-04-23T12:47:58.283Z,40.44
2019-04-23T12:48:46.749Z,40.11
2019-04-23T12:50:05.074Z,39.76
2019-04-23T12:50:58.639Z,39.09
2019-04-23T12:51:55.528Z,39.27
2019-04-23T12:53:00.635Z,39.34
2019-04-23T12:54:09.223Z,39.69
2019-04-23T12:55:13.625Z,39.54
2019-04-23T12:56:21.326Z,39.69
2019-04-23T12:57:17.988Z,39.15
2019-04-23T12:58:26.868Z,39.23
2019-04-23T12:59:27.282Z,39.23
2019-04-23T13:00:33.956Z,39.24
2019-04-23T13:01:45.469Z,39.03
2019-04-23T13:03:39.253Z,39.06
2019-04-23T13:05:43.519Z,39.74
2019-04-23T13:06:57.844Z,39.02
2019-04-23T13:08:05.704Z,39.37
2019-04-23T13:09:18.592Z,39.36
2019-04-23T13:10:11.904Z,39.69
2019-04-23T13:11:17.620Z,40.59
2019-04-23T13:12:33.277Z,40.19
2019-04-23T13:14:34.731Z,40.44
2019-04-23T13:15:48.963Z,40.00
2019-04-23T13:18:47.050Z,39.87
2019-04-23T13:19:54.692Z,39.57
2019-04-23T13:20:47.859Z,39.09
2019-04-23T13:22:13.505Z,39.90
2019-04-23T13:24:11.465Z,40.16
2019-04-23T13:25:19.967Z,40.56
2019-04-23T13:26:07.666Z,39.94
2019-04-23T13:27:30.595Z,40.06
2019-04-23T13:28:29.579Z,40.43
2019-04-23T13:29:41.507Z,40.27
2019-04-23T13:30:37.508Z,40.24
2019-04-23T13:31:34.697Z,40.50
2019-04-23T13:32:46.514Z,40.13
2019-04-23T13:33:58.656Z,40.16
2019-04-23T13:35:02.641Z,40.99
2019-04-23T13:36:01.667Z,39.90
2019-04-23T13:37:00.490Z,40.05
2019-04-23T13:38:09.858Z,40.02
2019-04-23T13:39:14.576Z,39.63
2019-04-23T13:40:21.354Z,39.97
2019-04-23T13:42:33.689Z,40.49
2019-04-23T13:43:36.349Z,41.00
2019-04-23T13:44:38.926Z,40.41
2019-04-23T13:46:35.562Z,39.98
2019-04-23T13:47:53.433Z,40.36
2019-04-23T13:48:49.305Z,40.23
2019-04-23T13:50:00.237Z,40.97
2019-04-23T13:52:28.315Z,40.43
2019-04-23T13:53:18.554Z,40.83
2019-04-23T13:54:17.313Z,41.05
2019-04-23T13:55:26.737Z,40.53
2019-04-23T13:56:23.795Z,41.20
2019-04-23T13:58:26.767Z,40.73
2019-04-23T13:59:48.566Z,40.50
2019-04-23T14:01:41.192Z,40.42
2019-04-23T14:04:16.604Z,40.06
2019-04-23T14:06:09.372Z,39.55
2019-04-23T14:07:10.603Z,39.95
2019-04-23T14:08:23.224Z,40.19
2019-04-23T14:09:20.054Z,39.88
2019-04-23T14:11:27.155Z,41.44
2019-04-23T14:12:31.841Z,40.64
2019-04-23T14:14:47.977Z,41.14
2019-04-23T14:15:54.015Z,41.18
2019-04-23T14:18:17.429Z,40.45
2019-04-23T14:18:59.061Z,40.28
2019-04-23T14:20:04.165Z,40.77
2019-04-23T14:21:08.450Z,40.05
2019-04-23T14:22:21.203Z,40.72
2019-04-23T14:23:17.877Z,40.52
2019-04-23T14:24:38.832Z,40.55
2019-04-23T14:25:17.112Z,40.33
2019-04-23T14:26:32.685Z,40.52
2019-04-23T14:27:44.612Z,40.86
2019-04-23T14:28:35.491Z,40.48
2019-04-23T14:29:48.772Z,40.63
2019-04-23T14:30:51.036Z,40.38
2019-04-23T14:31:43.226Z,40.61
2019-04-23T14:32:54.231Z,40.46
2019-04-23T14:35:10.846Z,41.04
2019-04-23T14:37:11.877Z,41.13
2019-04-23T14:39:20.040Z,41.57
2019-04-23T14:40:29.799Z,41.54
2019-04-23T14:41:27.242Z,41.91
2019-04-23T14:43:40.648Z,42.19
2019-04-23T14:44:40.503Z,42.44
2019-04-23T14:46:58.669Z,41.91
2019-04-23T14:47:59.143Z,42.29
2019-04-23T14:48:56.978Z,42.17
2019-04-23T14:50:24.375Z,42.06
2019-04-23T14:51:16.629Z,42.06
2019-04-23T14:52:14.214Z,41.77
2019-04-23T14:54:24.884Z,42.26
2019-04-23T14:56:27.800Z,42.08
2019-04-23T14:59:37.637Z,42.44
2019-04-23T15:00:54.057Z,42.23
2019-04-23T15:01:49.250Z,42.37
2019-04-23T15:03:00.215Z,42.75
2019-04-23T15:03:56.028Z,42.81
2019-04-23T15:05:04.109Z,43.13
2019-04-23T15:06:26.097Z,43.20
2019-04-23T15:07:18.851Z,43.38
2019-04-23T15:08:24.970Z,43.22
2019-04-23T15:10:24.559Z,43.61
2019-04-23T15:13:42.792Z,43.56
2019-04-23T15:14:51.200Z,43.67
2019-04-23T15:15:57.085Z,43.44
2019-04-23T15:16:57.125Z,43.34
2019-04-23T15:17:58.051Z,43.22
2019-04-23T15:20:04.319Z,43.84
2019-04-23T15:21:31.473Z,43.54
2019-04-23T15:22:15.764Z,44.03
2019-04-23T15:23:33.446Z,44.03
2019-04-23T15:24:30.588Z,44.15
2019-04-23T15:28:18.573Z,43.66
2019-04-23T15:29:36.829Z,44.05
2019-04-23T15:30:58.703Z,44.03
2019-04-23T15:33:11.807Z,44.56
2019-04-23T15:35:25.338Z,44.59
2019-04-23T15:37:32.883Z,44.26
2019-04-23T15:38:37.699Z,44.08
2019-04-23T15:40:36.623Z,43.79
2019-04-23T15:41:43.768Z,43.97
2019-04-23T15:42:40.407Z,44.38
2019-04-23T15:43:49.509Z,44.59
2019-04-23T15:44:48.991Z,44.47
2019-04-23T15:45:52.343Z,44.38
2019-04-23T15:47:01.989Z,44.47
2019-04-23T15:48:03.332Z,44.98
2019-04-23T15:49:22.946Z,45.31
2019-04-23T15:50:19.808Z,45.30
2019-04-23T15:51:20.661Z,45.47
2019-04-23T15:52:19.232Z,45.72
2019-04-23T15:53:17.527Z,45.79
2019-04-23T15:54:37.628Z,45.72
2019-04-23T15:55:36.727Z,46.00
2019-04-23T15:56:40.943Z,45.97
2019-04-23T15:58:53.629Z,46.13
2019-04-23T15:59:48.197Z,46.15
2019-04-23T16:01:00.793Z,46.49
2019-04-23T16:01:41.079Z,46.37
2019-04-23T16:02:35.100Z,46.39
2019-04-23T16:03:41.856Z,46.41
2019-04-23T16:04:44.088Z,46.66
2019-04-23T16:05:48.875Z,46.33
2019-04-23T16:06:54.044Z,46.59
2019-04-23T16:08:27.934Z,46.83
2019-04-23T16:09:26.154Z,46.81
2019-04-23T16:11:47.991Z,47.01
2019-04-23T16:12:41.634Z,47.16
2019-04-23T16:14:05.886Z,47.23
2019-04-23T16:14:56.802Z,46.89
2019-04-23T16:15:57.993Z,47.17
2019-04-23T16:17:04.470Z,47.02
2019-04-23T16:18:14.018Z,47.36
2019-04-23T16:19:17.731Z,47.26
2019-04-23T16:20:32.009Z,47.40
2019-04-23T16:21:32.250Z,47.41
2019-04-23T16:22:19.753Z,47.15
2019-04-23T16:23:26.382Z,47.17
2019-04-23T16:24:51.895Z,47.46
2019-04-23T16:25:31.683Z,47.38
2019-04-23T16:26:52.386Z,47.83
2019-04-23T16:27:42.045Z,48.02
2019-04-23T16:29:07.466Z,47.97
2019-04-23T16:30:08.529Z,48.17
2019-04-23T16:31:03.269Z,48.47
2019-04-23T16:32:08.285Z,48.79
2019-04-23T16:33:08.367Z,48.77
2019-04-23T16:35:19.422Z,48.75
2019-04-23T16:36:19.203Z,48.66
2019-04-23T16:37:20.151Z,48.97
2019-04-23T16:38:33.639Z,49.00
2019-04-23T16:39:28.820Z,49.28
2019-04-23T16:40:36.993Z,49.22
2019-04-23T16:41:39.902Z,49.07
2019-04-23T16:42:49.377Z,49.05
2019-04-23T16:43:59.686Z,49.08
2019-04-23T16:46:03.737Z,49.47
2019-04-23T16:47:23.924Z,49.70
2019-04-23T16:48:13.987Z,49.73
2019-04-23T16:49:23.275Z,49.77
2019-04-23T16:50:18.275Z,49.88
2019-04-23T16:51:24.750Z,49.75
2019-04-23T16:52:27.851Z,49.95
2019-04-23T16:53:27.032Z,50.00
2019-04-23T16:55:37.909Z,50.16
2019-04-23T16:57:01.020Z,50.45
2019-04-23T16:58:54.604Z,50.86
2019-04-23T17:01:05.468Z,51.67
2019-04-23T17:02:13.476Z,52.24
2019-04-23T17:03:26.504Z,52.19
2019-04-23T17:04:18.068Z,52.38